Terminal Aerodrome Forecast
Issued by NWS Mt. Holly, NJ

Home | Current Version | Previous Version | Text Only | Print | Product List | Glossary On
Versions: 1 2 3 4 5 6 7 8 9 10 11 12 13 14 15 16 17 18 19 20 21 22 23 24 25
000
FTUS41 KPHI 100500
TAFPHL
TAF
KPHL 100537Z 1006/1112 VRB04KT P6SM SCT035 BKN100
      TEMPO 1007/1010 BKN035 OVC100
     FM101000 06006KT P6SM SCT035 BKN100
     FM101600 10006KT P6SM SCT045
     FM102200 15006KT P6SM SCT045
     FM110100 VRB04KT P6SM BKN100
     FM110800 04006KT P6SM SCT025 BKN080=

USA.gov is the U.S. government's official web portal to all federal, state and local government web resources and services.